Time;durP1;ratioP1;P1;durP2;ratioP2;P2;SDS_P1;SDS_P2;PMS_P1;PMS_P2;Temp;Humidity;BMP_temperature;BMP_pressure;BME280_temperature;BME280_humidity;BME280_pressure;Samples;Min_cycle;Max_cycle;Signal;HPM_P1;HPM_P2
2023/09/19 00:00:19;;;;;;;0.20;0.20;;;15.30;99.90;;;;;;5091025;28;20047;-76
2023/09/19 00:02:47;;;;;;;0.20;0.20;;;15.30;99.90;;;;;;5091112;28;20411;-76
2023/09/19 00:05:13;;;;;;;0.20;0.20;;;15.30;99.90;;;;;;5090352;28;20044;-76
2023/09/19 00:07:40;;;;;;;0.10;0.10;;;15.20;99.90;;;;;;5090678;28;20060;-76
2023/09/19 00:10:08;;;;;;;0.20;0.20;;;15.20;99.90;;;;;;5091022;28;20502;-76
2023/09/19 00:12:34;;;;;;;0.17;0.17;;;15.20;99.90;;;;;;5089825;28;20480;-76
2023/09/19 00:15:00;;;;;;;0.10;0.10;;;15.10;99.90;;;;;;5090590;28;20109;-76
2023/09/19 00:17:26;;;;;;;0.13;0.13;;;15.10;99.90;;;;;;5090762;28;20083;-76
2023/09/19 00:19:52;;;;;;;0.10;0.10;;;15.00;99.90;;;;;;5089946;28;20129;-76
2023/09/19 00:22:19;;;;;;;0.20;0.20;;;15.00;99.90;;;;;;5089506;28;20048;-76
2023/09/19 00:24:45;;;;;;;0.20;0.20;;;15.00;99.90;;;;;;5091165;28;20047;-76
2023/09/19 00:27:11;;;;;;;0.10;0.10;;;14.90;99.90;;;;;;5087206;28;20514;-75
2023/09/19 00:29:37;;;;;;;2.65;0.20;;;14.90;99.90;;;;;;5089377;28;20036;-76
2023/09/19 00:32:03;;;;;;;0.20;0.20;;;15.00;99.90;;;;;;5089289;28;20036;-76
2023/09/19 00:34:34;;;;;;;0.20;0.20;;;14.90;99.90;;;;;;5088900;28;20040;-76
2023/09/19 00:36:59;;;;;;;0.15;0.15;;;14.90;99.90;;;;;;5089895;28;20042;-76
2023/09/19 00:39:25;;;;;;;0.17;0.17;;;14.90;99.90;;;;;;5081820;28;20567;-76
2023/09/19 00:41:51;;;;;;;0.10;0.10;;;14.90;99.90;;;;;;5074243;28;20480;-76
2023/09/19 00:44:17;;;;;;;0.10;0.10;;;14.80;99.90;;;;;;5088512;28;20031;-76
2023/09/19 00:46:43;;;;;;;0.10;0.10;;;14.80;99.90;;;;;;5089938;28;20402;-76
2023/09/19 00:49:09;;;;;;;0.10;0.10;;;14.80;99.90;;;;;;5089645;28;20043;-76
2023/09/19 00:51:36;;;;;;;0.10;0.10;;;14.70;99.90;;;;;;5089514;28;20047;-76
2023/09/19 00:54:03;;;;;;;0.20;0.20;;;14.70;99.90;;;;;;5089214;28;20522;-76
2023/09/19 00:56:29;;;;;;;0.10;0.10;;;14.70;99.90;;;;;;5090163;28;20406;-76
2023/09/19 00:58:55;;;;;;;0.10;0.10;;;14.70;99.90;;;;;;5089567;28;20044;-76
2023/09/19 01:01:21;;;;;;;0.10;0.10;;;14.70;99.90;;;;;;5089520;28;20055;-76
2023/09/19 01:03:47;;;;;;;0.15;0.15;;;14.60;99.90;;;;;;5089802;28;20540;-76
2023/09/19 01:06:12;;;;;;;0.10;0.10;;;14.60;99.90;;;;;;5089340;28;20044;-76
2023/09/19 01:08:38;;;;;;;0.20;0.20;;;14.60;99.90;;;;;;5085391;28;20625;-76
2023/09/19 01:11:32;;;;;;;0.20;0.20;;;14.50;99.90;;;;;;5089353;28;20083;-76
2023/09/19 01:14:07;;;;;;;0.20;0.20;;;14.50;99.90;;;;;;5088932;28;20487;-76
2023/09/19 01:17:01;;;;;;;0.10;0.10;;;14.50;99.90;;;;;;5089019;28;20510;-75
2023/09/19 01:20:02;;;;;;;0.13;0.13;;;14.40;99.90;;;;;;5080403;28;20105;-76
2023/09/19 01:22:51;;;;;;;0.20;0.20;;;14.40;99.90;;;;;;5068071;28;20055;-76
2023/09/19 01:25:52;;;;;;;0.10;0.10;;;14.40;99.90;;;;;;5089680;28;20048;-76
2023/09/19 01:29:01;;;;;;;0.10;0.10;;;14.30;99.90;;;;;;5087101;28;20407;-77
2023/09/19 01:31:31;;;;;;;0.10;0.10;;;14.30;99.90;;;;;;5060992;28;20078;-76
2023/09/19 01:34:03;;;;;;;0.20;0.20;;;14.30;99.90;;;;;;5088925;28;20044;-75
2023/09/19 01:36:35;;;;;;;0.10;0.10;;;14.20;99.90;;;;;;5088546;28;20040;-76
2023/09/19 01:39:10;;;;;;;0.10;0.10;;;14.20;99.90;;;;;;5070387;28;20043;-76
2023/09/19 01:41:49;;;;;;;0.10;0.10;;;14.10;99.90;;;;;;5081769;28;20039;-76
2023/09/19 01:44:35;;;;;;;0.20;0.20;;;14.20;99.90;;;;;;5084236;28;20114;-76
2023/09/19 01:47:10;;;;;;;0.20;0.20;;;14.20;99.90;;;;;;5081621;28;20055;-76
2023/09/19 01:49:46;;;;;;;0.10;0.10;;;14.10;99.90;;;;;;5087918;28;20044;-75
2023/09/19 01:52:16;;;;;;;0.10;0.10;;;14.10;99.90;;;;;;5080266;28;20043;-75
2023/09/19 01:54:50;;;;;;;0.10;0.10;;;14.10;99.90;;;;;;5075328;28;20043;-76
2023/09/19 01:57:29;;;;;;;0.15;0.15;;;14.10;99.90;;;;;;5086497;28;20147;-76
2023/09/19 02:00:08;;;;;;;0.17;0.17;;;14.00;99.90;;;;;;5074616;28;20044;-76
2023/09/19 02:02:38;;;;;;;0.13;0.13;;;14.10;99.90;;;;;;5090193;28;20040;-76
2023/09/19 02:05:04;;;;;;;0.20;0.20;;;14.00;99.90;;;;;;5088492;28;20471;-76
2023/09/19 02:07:33;;;;;;;0.20;0.20;;;14.00;99.90;;;;;;5085532;28;20142;-76
2023/09/19 02:10:05;;;;;;;0.20;0.20;;;14.00;99.90;;;;;;5088502;28;20040;-76
2023/09/19 02:12:35;;;;;;;0.10;0.10;;;13.90;99.90;;;;;;5086777;28;20043;-76
2023/09/19 02:15:01;;;;;;;0.10;0.10;;;13.90;99.90;;;;;;5087043;28;20055;-76
2023/09/19 02:17:26;;;;;;;0.20;0.20;;;13.90;99.90;;;;;;5087355;28;20056;-76
2023/09/19 02:19:54;;;;;;;0.20;0.20;;;13.90;99.90;;;;;;5088050;28;20044;-76
2023/09/19 02:22:21;;;;;;;0.10;0.10;;;13.90;99.90;;;;;;5087973;28;20040;-76
2023/09/19 02:24:48;;;;;;;0.10;0.10;;;13.90;99.90;;;;;;5088117;28;20063;-76
2023/09/19 02:27:15;;;;;;;0.13;0.13;;;13.90;99.90;;;;;;5087190;28;20044;-76
2023/09/19 02:29:41;;;;;;;0.10;0.10;;;13.80;99.90;;;;;;5087323;28;20573;-76
2023/09/19 02:32:09;;;;;;;0.10;0.10;;;13.80;99.90;;;;;;5081687;28;20049;-76
2023/09/19 02:34:36;;;;;;;0.10;0.10;;;13.80;99.90;;;;;;5077426;28;20396;-76
2023/09/19 02:37:04;;;;;;;0.20;0.20;;;13.70;99.90;;;;;;5088174;28;20044;-75
2023/09/19 02:39:31;;;;;;;0.10;0.10;;;13.70;99.90;;;;;;5077734;28;20117;-76
2023/09/19 02:41:57;;;;;;;0.13;0.13;;;13.70;99.90;;;;;;5073865;28;20055;-75
2023/09/19 02:44:23;;;;;;;0.20;0.20;;;13.70;99.90;;;;;;5083192;28;20043;-76
2023/09/19 02:46:49;;;;;;;0.10;0.10;;;13.70;99.90;;;;;;5086361;28;20137;-76
2023/09/19 02:49:15;;;;;;;0.17;0.17;;;13.60;99.90;;;;;;5076493;28;20496;-76
2023/09/19 02:51:41;;;;;;;0.10;0.10;;;13.60;99.90;;;;;;5076113;28;20082;-76
2023/09/19 02:54:07;;;;;;;0.20;0.20;;;13.60;99.90;;;;;;5087698;28;20098;-75
2023/09/19 02:56:33;;;;;;;0.10;0.10;;;13.60;99.90;;;;;;5087721;28;20086;-75
2023/09/19 02:59:00;;;;;;;0.20;0.20;;;13.60;99.90;;;;;;5086385;28;20072;-76
2023/09/19 03:01:27;;;;;;;0.10;0.10;;;13.50;99.90;;;;;;5085513;28;20567;-76
2023/09/19 03:03:53;;;;;;;0.10;0.10;;;13.50;99.90;;;;;;5087789;28;20044;-76
2023/09/19 03:06:20;;;;;;;0.10;0.10;;;13.50;99.90;;;;;;5087645;28;20040;-76
2023/09/19 03:08:46;;;;;;;0.20;0.20;;;13.50;99.90;;;;;;5087452;28;20080;-76
2023/09/19 03:11:14;;;;;;;0.10;0.10;;;13.50;99.90;;;;;;5087780;28;20048;-74
2023/09/19 03:13:41;;;;;;;0.10;0.10;;;13.50;99.90;;;;;;5085665;28;20723;-76
2023/09/19 03:16:07;;;;;;;0.10;0.10;;;13.50;99.90;;;;;;5084907;28;20138;-75
2023/09/19 03:18:36;;;;;;;0.10;0.10;;;13.50;99.90;;;;;;5079672;28;20062;-75
2023/09/19 03:21:02;;;;;;;0.10;0.10;;;13.50;99.90;;;;;;5087154;28;20036;-76
2023/09/19 03:23:28;;;;;;;0.10;0.10;;;13.50;99.90;;;;;;5086731;28;20128;-75
2023/09/19 03:25:55;;;;;;;0.10;0.10;;;13.50;99.90;;;;;;5087959;28;20044;-76
2023/09/19 03:28:22;;;;;;;0.10;0.10;;;13.60;99.90;;;;;;5085603;28;20050;-75
2023/09/19 03:31:04;;;;;;;0.10;0.10;;;13.50;99.90;;;;;;5085687;28;20483;-75
2023/09/19 03:33:32;;;;;;;0.10;0.10;;;13.60;99.90;;;;;;5088653;28;20190;-76
2023/09/19 03:35:59;;;;;;;0.10;0.10;;;13.50;99.90;;;;;;5089319;28;20036;-76
2023/09/19 03:38:25;;;;;;;0.20;0.20;;;13.50;99.90;;;;;;5089307;28;20044;-76
2023/09/19 03:40:51;;;;;;;0.10;0.10;;;13.50;99.90;;;;;;5071860;28;20048;-75
2023/09/19 03:43:17;;;;;;;0.20;0.20;;;13.50;99.90;;;;;;5070910;28;20044;-76
2023/09/19 03:45:43;;;;;;;0.10;0.10;;;13.50;99.90;;;;;;5091830;28;20078;-75
2023/09/19 03:48:12;;;;;;;0.10;0.10;;;13.50;99.90;;;;;;5090865;28;20093;-75
2023/09/19 03:50:38;;;;;;;0.10;0.10;;;13.50;99.90;;;;;;5088277;28;20047;-75
2023/09/19 03:53:04;;;;;;;0.10;0.10;;;13.50;99.90;;;;;;5088727;28;20089;-75
2023/09/19 03:55:30;;;;;;;0.20;0.20;;;13.50;99.90;;;;;;5091404;28;20036;-75
2023/09/19 03:57:56;;;;;;;0.20;0.20;;;13.50;99.90;;;;;;5089431;28;20067;-75
2023/09/19 04:00:24;;;;;;;0.10;0.10;;;13.50;99.90;;;;;;5087447;28;20063;-76
2023/09/19 04:02:51;;;;;;;0.15;0.15;;;13.40;99.90;;;;;;5080348;28;20503;-75
2023/09/19 04:05:17;;;;;;;0.20;0.20;;;13.40;99.90;;;;;;5090019;28;20050;-75
2023/09/19 04:07:43;;;;;;;0.10;0.10;;;13.40;99.90;;;;;;5089476;28;20054;-75
2023/09/19 04:10:11;;;;;;;0.10;0.10;;;13.40;99.90;;;;;;5090321;28;20075;-75
2023/09/19 04:12:37;;;;;;;0.10;0.10;;;13.40;99.90;;;;;;5090226;28;20044;-74
2023/09/19 04:15:03;;;;;;;0.10;0.10;;;13.40;99.90;;;;;;5090049;28;20048;-76
2023/09/19 04:17:29;;;;;;;0.10;0.10;;;13.40;99.90;;;;;;5087148;28;20048;-75
2023/09/19 04:19:54;;;;;;;0.20;0.20;;;13.40;99.90;;;;;;5090229;28;20059;-75
2023/09/19 04:22:20;;;;;;;0.10;0.10;;;13.50;99.90;;;;;;5089913;28;20048;-76
2023/09/19 04:24:45;;;;;;;0.20;0.20;;;13.50;99.90;;;;;;5090057;28;20117;-75
2023/09/19 04:27:14;;;;;;;0.10;0.10;;;13.40;99.90;;;;;;5090538;28;20123;-75
2023/09/19 04:29:41;;;;;;;0.13;0.13;;;13.40;99.90;;;;;;5090077;28;20044;-76
2023/09/19 04:32:07;;;;;;;0.10;0.10;;;13.40;99.90;;;;;;5088872;28;20044;-76
2023/09/19 04:34:34;;;;;;;0.20;0.20;;;13.40;99.90;;;;;;5089226;28;20085;-76
2023/09/19 04:37:00;;;;;;;0.10;0.10;;;13.40;99.90;;;;;;5091113;28;20429;-76
2023/09/19 04:39:27;;;;;;;0.20;0.20;;;13.50;99.90;;;;;;5080921;28;20040;-75
2023/09/19 04:41:53;;;;;;;0.10;0.10;;;13.50;99.90;;;;;;5088740;28;20095;-76
2023/09/19 04:44:18;;;;;;;0.20;0.20;;;13.40;99.90;;;;;;5082088;28;20043;-75
2023/09/19 04:46:46;;;;;;;0.10;0.10;;;13.40;99.90;;;;;;5089128;28;20051;-76
2023/09/19 04:49:12;;;;;;;0.20;0.20;;;13.60;99.90;;;;;;5088741;28;20154;-76
2023/09/19 04:51:38;;;;;;;0.10;0.10;;;13.30;99.90;;;;;;5090783;28;20044;-76
2023/09/19 04:54:04;;;;;;;0.10;0.10;;;13.50;99.90;;;;;;5089249;28;20043;-76
2023/09/19 04:56:29;;;;;;;0.10;0.10;;;13.50;99.90;;;;;;5088612;28;20047;-76
2023/09/19 04:58:55;;;;;;;0.10;0.10;;;13.50;99.90;;;;;;5090385;28;20072;-76
2023/09/19 05:01:22;;;;;;;0.17;0.17;;;13.50;99.90;;;;;;5080752;28;20036;-76
2023/09/19 05:03:52;;;;;;;0.10;0.10;;;13.50;99.90;;;;;;5082338;28;20079;-76
2023/09/19 05:06:21;;;;;;;0.10;0.10;;;13.60;99.90;;;;;;5088225;28;20131;-76
2023/09/19 05:08:50;;;;;;;0.10;0.10;;;13.50;99.90;;;;;;5089273;28;20054;-76
2023/09/19 05:11:17;;;;;;;0.10;0.10;;;13.60;99.90;;;;;;5089817;28;20039;-76
2023/09/19 05:13:43;;;;;;;0.20;0.20;;;13.60;99.90;;;;;;5087532;28;20079;-76
2023/09/19 05:16:10;;;;;;;0.20;0.20;;;13.60;99.90;;;;;;5089414;28;20083;-75
2023/09/19 05:18:36;;;;;;;0.20;0.20;;;13.60;99.90;;;;;;5087142;28;20040;-76
2023/09/19 05:21:05;;;;;;;0.15;0.15;;;13.60;99.90;;;;;;5089163;28;20055;-76
2023/09/19 05:23:31;;;;;;;0.10;0.10;;;13.60;99.90;;;;;;5089237;28;20048;-75
2023/09/19 05:25:59;;;;;;;0.10;0.10;;;13.60;99.90;;;;;;5088571;28;20123;-75
2023/09/19 05:28:25;;;;;;;0.10;0.10;;;13.60;99.90;;;;;;5086685;28;20055;-76
2023/09/19 05:30:53;;;;;;;0.20;0.20;;;13.70;99.90;;;;;;5089500;28;20082;-76
2023/09/19 05:33:19;;;;;;;0.13;0.13;;;13.70;99.90;;;;;;5089123;28;20040;-76
2023/09/19 05:35:47;;;;;;;0.10;0.10;;;13.70;99.90;;;;;;5088584;28;20043;-76
2023/09/19 05:38:13;;;;;;;0.10;0.10;;;13.70;99.90;;;;;;5088711;28;20147;-77
2023/09/19 05:40:42;;;;;;;0.20;0.20;;;13.70;99.90;;;;;;5087394;28;20119;-76
2023/09/19 05:43:08;;;;;;;0.10;0.10;;;13.70;99.90;;;;;;5086874;28;20043;-76
2023/09/19 05:45:35;;;;;;;0.15;0.15;;;13.70;99.90;;;;;;5076254;28;20067;-76
2023/09/19 05:48:13;;;;;;;0.10;0.10;;;13.80;99.90;;;;;;5075767;28;20044;-76
2023/09/19 05:50:39;;;;;;;0.20;0.20;;;13.80;99.90;;;;;;5088572;28;20511;-76
2023/09/19 05:53:06;;;;;;;0.15;0.15;;;13.80;99.90;;;;;;5088022;28;20044;-78
2023/09/19 05:55:32;;;;;;;0.10;0.10;;;13.80;99.90;;;;;;5078653;28;20042;-77
2023/09/19 05:57:58;;;;;;;0.10;0.10;;;13.80;99.90;;;;;;5067885;28;20040;-77
2023/09/19 06:00:27;;;;;;;0.10;0.10;;;13.80;99.90;;;;;;5068885;28;20391;-77
2023/09/19 06:02:57;;;;;;;0.20;0.20;;;13.90;99.90;;;;;;5071378;28;20051;-77
2023/09/19 06:05:26;;;;;;;0.20;0.20;;;13.90;99.90;;;;;;5088290;28;20043;-77
2023/09/19 06:07:52;;;;;;;0.10;0.10;;;13.90;99.90;;;;;;5087663;28;20040;-77
2023/09/19 06:10:20;;;;;;;0.10;0.10;;;13.90;99.90;;;;;;5088049;28;20438;-77
2023/09/19 06:12:48;;;;;;;0.10;0.10;;;13.90;99.90;;;;;;5087086;28;20056;-77
2023/09/19 06:15:23;;;;;;;0.10;0.10;;;13.90;99.90;;;;;;5086989;28;20084;-76
2023/09/19 06:17:55;;;;;;;0.17;0.17;;;14.00;99.90;;;;;;5085004;28;20064;-76
2023/09/19 06:20:22;;;;;;;0.10;0.10;;;14.00;99.90;;;;;;5085899;28;20050;-76
2023/09/19 06:22:48;;;;;;;0.15;0.15;;;14.00;99.90;;;;;;5088340;28;20442;-78
2023/09/19 06:25:21;;;;;;;0.20;0.20;;;14.00;99.90;;;;;;5084654;28;20379;-78
2023/09/19 06:27:48;;;;;;;0.20;0.20;;;14.10;99.90;;;;;;5088402;28;20048;-80
2023/09/19 06:30:14;;;;;;;0.10;0.10;;;14.10;99.90;;;;;;5084984;28;20048;-79
2023/09/19 06:32:43;;;;;;;0.10;0.10;;;14.10;99.90;;;;;;5085582;28;20403;-80
2023/09/19 06:35:13;;;;;;;0.20;0.20;;;14.10;99.90;;;;;;5090864;28;20047;-80
2023/09/19 06:37:40;;;;;;;0.20;0.20;;;14.20;99.90;;;;;;5088468;28;20047;-79
2023/09/19 06:40:14;;;;;;;0.10;0.10;;;14.20;99.90;;;;;;5087299;28;20040;-79
2023/09/19 06:42:56;;;;;;;0.17;0.17;;;14.20;99.90;;;;;;5083234;28;20540;-79
2023/09/19 06:45:21;;;;;;;0.20;0.20;;;14.20;99.90;;;;;;5076506;28;20101;-80
2023/09/19 06:47:51;;;;;;;0.10;0.10;;;14.20;99.90;;;;;;5083329;28;20044;-79
2023/09/19 06:50:25;;;;;;;0.10;0.10;;;14.30;99.90;;;;;;5085622;28;20525;-80
2023/09/19 06:52:56;;;;;;;0.20;0.20;;;14.30;99.90;;;;;;5101836;28;20058;-80
2023/09/19 06:55:25;;;;;;;0.20;0.20;;;14.30;99.90;;;;;;5068330;28;20406;-79
2023/09/19 06:57:51;;;;;;;0.10;0.10;;;14.40;99.90;;;;;;5067524;28;20056;-79
2023/09/19 07:00:21;;;;;;;0.10;0.10;;;14.40;99.90;;;;;;5081870;28;20493;-79
2023/09/19 07:03:04;;;;;;;0.20;0.20;;;14.40;99.90;;;;;;5082220;28;20047;-80
2023/09/19 07:05:31;;;;;;;0.10;0.10;;;14.50;99.90;;;;;;5089031;28;20054;-78
2023/09/19 07:08:00;;;;;;;0.10;0.10;;;14.50;99.90;;;;;;5095095;28;20150;-79
2023/09/19 07:10:28;;;;;;;0.17;0.17;;;14.50;99.90;;;;;;5084763;28;20039;-78
2023/09/19 07:13:06;;;;;;;0.20;0.20;;;14.60;99.90;;;;;;5084585;28;20040;-79
2023/09/19 07:15:35;;;;;;;0.10;0.10;;;14.60;99.90;;;;;;5094879;28;20075;-79
2023/09/19 07:18:01;;;;;;;0.10;0.10;;;14.60;99.90;;;;;;5103059;28;20044;-79
2023/09/19 07:20:29;;;;;;;0.10;0.10;;;14.60;99.90;;;;;;5083382;28;20040;-77
2023/09/19 07:22:55;;;;;;;0.10;0.10;;;14.70;99.90;;;;;;5087177;28;20044;-77
2023/09/19 07:25:21;;;;;;;0.17;0.17;;;14.70;99.90;;;;;;5094596;28;20520;-78
2023/09/19 07:27:47;;;;;;;0.20;0.20;;;14.80;99.90;;;;;;5092028;28;20050;-78
2023/09/19 07:30:13;;;;;;;0.20;0.20;;;14.80;99.90;;;;;;5096834;28;20113;-77
2023/09/19 07:32:40;;;;;;;0.20;0.20;;;14.80;99.90;;;;;;5103781;28;20089;-77
2023/09/19 07:35:06;;;;;;;0.10;0.10;;;14.90;99.90;;;;;;5096947;28;20075;-77
2023/09/19 07:37:33;;;;;;;0.10;0.10;;;14.90;99.90;;;;;;5087175;28;20086;-77
2023/09/19 07:40:07;;;;;;;0.20;0.20;;;14.90;99.90;;;;;;5096260;28;20563;-77
2023/09/19 07:42:35;;;;;;;0.20;0.20;;;14.90;99.90;;;;;;5082192;28;20056;-77
2023/09/19 07:45:01;;;;;;;0.20;0.20;;;14.90;99.90;;;;;;5097419;28;20049;-77
2023/09/19 07:47:27;;;;;;;0.10;0.10;;;14.90;99.90;;;;;;5093370;28;20051;-78
2023/09/19 07:49:54;;;;;;;0.10;0.10;;;15.00;99.90;;;;;;5090823;28;20483;-78
2023/09/19 07:52:22;;;;;;;0.10;0.10;;;15.00;99.90;;;;;;5081549;28;20522;-77
2023/09/19 07:54:49;;;;;;;0.15;0.15;;;15.00;99.90;;;;;;5089634;28;20047;-77
2023/09/19 07:57:15;;;;;;;0.10;0.10;;;15.10;99.90;;;;;;5092550;28;20086;-77
2023/09/19 07:59:42;;;;;;;0.17;0.17;;;15.10;99.90;;;;;;5090077;28;20043;-77
2023/09/19 08:02:15;;;;;;;0.20;0.20;;;15.10;99.90;;;;;;5087894;28;20044;-77
2023/09/19 08:04:46;;;;;;;0.10;0.10;;;15.10;99.90;;;;;;5098037;28;20056;-77
2023/09/19 08:07:13;;;;;;;0.20;0.20;;;15.10;99.90;;;;;;5086928;28;20336;-78
2023/09/19 08:09:39;;;;;;;0.20;0.20;;;15.20;99.90;;;;;;5090216;28;20411;-77
2023/09/19 08:12:07;;;;;;;0.20;0.20;;;15.10;99.90;;;;;;5086775;28;20085;-78
2023/09/19 08:14:33;;;;;;;0.20;0.20;;;15.20;99.90;;;;;;5086656;28;20067;-77
2023/09/19 08:17:00;;;;;;;0.20;0.20;;;15.20;99.90;;;;;;5110224;28;20036;-78
2023/09/19 08:19:28;;;;;;;0.20;0.20;;;15.30;99.90;;;;;;5094631;28;20056;-78
2023/09/19 08:22:01;;;;;;;0.20;0.20;;;15.30;99.90;;;;;;5099624;28;20058;-78
2023/09/19 08:24:30;;;;;;;0.10;0.10;;;15.40;99.90;;;;;;5100113;28;20097;-77
2023/09/19 08:26:56;;;;;;;0.20;0.20;;;15.40;99.90;;;;;;5111270;28;20039;-78
2023/09/19 08:29:27;;;;;;;0.20;0.20;;;15.50;99.90;;;;;;5090100;28;20044;-77
2023/09/19 08:31:57;;;;;;;1.75;0.80;;;15.50;99.90;;;;;;5089812;28;20055;-77
2023/09/19 08:34:24;;;;;;;0.20;0.20;;;15.60;99.90;;;;;;5108107;28;20058;-77
2023/09/19 08:36:57;;;;;;;0.20;0.20;;;15.60;99.90;;;;;;5095273;28;20177;-78
2023/09/19 08:39:23;;;;;;;0.13;0.13;;;15.70;99.90;;;;;;5082258;28;20051;-77
2023/09/19 08:41:49;;;;;;;0.20;0.20;;;15.70;99.90;;;;;;5108007;28;20164;-78
2023/09/19 08:44:15;;;;;;;0.20;0.20;;;15.80;99.90;;;;;;5090559;28;20048;-77
2023/09/19 08:46:43;;;;;;;0.10;0.10;;;15.80;99.90;;;;;;5074744;28;20098;-77
2023/09/19 08:49:38;;;;;;;0.20;0.20;;;15.90;99.90;;;;;;5085381;28;20440;-77
2023/09/19 08:52:36;;;;;;;0.20;0.20;;;15.90;99.90;;;;;;5075311;28;20051;-77
2023/09/19 08:55:09;;;;;;;0.13;0.13;;;16.00;99.90;;;;;;5090273;28;20041;-77
2023/09/19 08:57:41;;;;;;;0.20;0.20;;;16.10;99.90;;;;;;5085937;28;20077;-78
2023/09/19 09:00:11;;;;;;;0.10;0.10;;;16.10;99.90;;;;;;5086067;28;20070;-76
2023/09/19 09:02:42;;;;;;;0.20;0.20;;;16.20;99.90;;;;;;5088724;28;20050;-77
2023/09/19 09:05:09;;;;;;;0.20;0.20;;;16.20;99.90;;;;;;5090148;28;20070;-77
2023/09/19 09:07:37;;;;;;;0.20;0.20;;;16.30;99.90;;;;;;5106299;28;20662;-77
2023/09/19 09:10:03;;;;;;;0.15;0.15;;;16.30;99.90;;;;;;5109678;28;20051;-77
2023/09/19 09:12:29;;;;;;;0.10;0.10;;;16.30;99.90;;;;;;5088463;28;20403;-76
2023/09/19 09:14:57;;;;;;;0.20;0.20;;;16.40;99.90;;;;;;5087065;28;20116;-78
2023/09/19 09:17:26;;;;;;;0.17;0.17;;;16.50;99.90;;;;;;5093451;28;20112;-76
2023/09/19 09:19:53;;;;;;;0.20;0.20;;;16.40;99.90;;;;;;5089895;28;20074;-77
2023/09/19 09:22:21;;;;;;;0.20;0.20;;;16.50;99.90;;;;;;5089609;28;20074;-76
2023/09/19 09:24:58;;;;;;;0.10;0.10;;;16.50;99.90;;;;;;5096002;28;20043;-76
2023/09/19 09:27:24;;;;;;;0.10;0.10;;;16.50;99.90;;;;;;5108272;28;20050;-76
2023/09/19 09:29:51;;;;;;;0.20;0.20;;;16.50;99.90;;;;;;5101625;28;20069;-76
2023/09/19 09:32:36;;;;;;;0.20;0.20;;;16.60;99.90;;;;;;5092216;28;20032;-77
2023/09/19 09:35:09;;;;;;;0.15;0.15;;;16.60;99.90;;;;;;5106658;28;20043;-77
2023/09/19 09:37:38;;;;;;;0.15;0.15;;;16.60;99.90;;;;;;5108536;28;20502;-77
2023/09/19 09:42:46;;;;;;;0.20;0.20;;;16.70;99.90;;;;;;5088193;28;20487;-77
2023/09/19 09:45:48;;;;;;;0.20;0.20;;;16.70;99.90;;;;;;5095126;28;20044;-77
2023/09/19 09:48:18;;;;;;;0.20;0.20;;;16.70;99.90;;;;;;5102303;28;20054;-76
2023/09/19 09:53:30;;;;;;;0.20;0.20;;;16.80;99.90;;;;;;5099308;28;20048;-76
2023/09/19 09:56:14;;;;;;;0.20;0.20;;;16.80;99.90;;;;;;5088513;28;20051;-78
2023/09/19 09:58:48;;;;;;;0.10;0.10;;;16.80;99.90;;;;;;5092774;28;20042;-76
2023/09/19 10:01:17;;;;;;;0.10;0.10;;;16.80;99.90;;;;;;5086002;28;20089;-76
2023/09/19 10:03:47;;;;;;;0.20;0.20;;;16.90;99.90;;;;;;5083241;28;20066;-77
2023/09/19 10:09:36;;;;;;;0.10;0.10;;;17.10;99.90;;;;;;5081614;28;20044;-77
2023/09/19 10:12:05;;;;;;;0.10;0.10;;;17.20;99.90;;;;;;5086556;28;20063;-77
2023/09/19 10:14:33;;;;;;;0.10;0.10;;;17.40;99.90;;;;;;5087542;28;20071;-76
2023/09/19 10:17:04;;;;;;;1.15;0.40;;;17.40;99.90;;;;;;5085793;28;20052;-75
2023/09/19 10:19:36;;;;;;;0.20;0.20;;;17.50;99.90;;;;;;5088984;28;20093;-78
2023/09/19 10:22:04;;;;;;;0.10;0.10;;;17.50;99.90;;;;;;5082377;28;20443;-76
2023/09/19 10:24:33;;;;;;;0.20;0.20;;;17.60;99.90;;;;;;5077081;28;20495;-77
2023/09/19 10:27:00;;;;;;;0.10;0.10;;;17.70;99.90;;;;;;5088643;28;20052;-77
2023/09/19 10:29:31;;;;;;;0.20;0.20;;;17.80;99.90;;;;;;5087197;28;20082;-78
2023/09/19 10:31:59;;;;;;;0.10;0.10;;;17.90;99.90;;;;;;5087624;28;20048;-79
2023/09/19 10:34:26;;;;;;;0.20;0.20;;;18.00;99.90;;;;;;5087475;28;20055;-79
2023/09/19 10:36:52;;;;;;;0.20;0.20;;;18.00;99.90;;;;;;5085476;28;20051;-78
2023/09/19 10:39:19;;;;;;;0.10;0.10;;;18.00;99.90;;;;;;5088326;28;20066;-79
2023/09/19 10:41:53;;;;;;;0.20;0.20;;;17.90;99.90;;;;;;5109415;28;20043;-79
2023/09/19 10:44:23;;;;;;;0.20;0.20;;;18.00;99.90;;;;;;5090464;28;20388;-80
2023/09/19 10:46:49;;;;;;;0.30;0.30;;;18.00;99.90;;;;;;5091963;28;20044;-80
2023/09/19 10:49:15;;;;;;;0.20;0.20;;;18.10;99.90;;;;;;5088162;28;20138;-80
2023/09/19 10:51:45;;;;;;;0.20;0.20;;;18.20;99.90;;;;;;5069878;28;20072;-79
2023/09/19 10:54:17;;;;;;;0.20;0.20;;;18.30;99.90;;;;;;5086084;28;20036;-79
2023/09/19 10:56:48;;;;;;;0.20;0.20;;;18.30;99.90;;;;;;5081089;28;20439;-78
2023/09/19 10:59:19;;;;;;;0.20;0.20;;;18.30;99.90;;;;;;5090394;28;20132;-79
2023/09/19 11:01:53;;;;;;;0.20;0.20;;;18.20;99.90;;;;;;5090155;28;20131;-79
2023/09/19 11:04:38;;;;;;;0.20;0.20;;;18.20;99.90;;;;;;5071227;28;20046;-79
2023/09/19 11:07:14;;;;;;;0.10;0.10;;;18.10;99.90;;;;;;5076049;28;20094;-80
2023/09/19 11:09:57;;;;;;;0.10;0.10;;;18.20;99.90;;;;;;5089848;28;20048;-78
2023/09/19 11:12:30;;;;;;;0.13;0.13;;;18.20;99.90;;;;;;5090105;28;20040;-78
2023/09/19 11:14:56;;;;;;;0.20;0.20;;;18.30;99.90;;;;;;5083507;28;20134;-80
2023/09/19 11:17:22;;;;;;;0.20;0.20;;;18.20;99.90;;;;;;5093069;28;20340;-79
2023/09/19 11:22:49;;;;;;;0.20;0.20;;;18.20;99.90;;;;;;5090778;28;20048;-80
2023/09/19 11:25:30;;;;;;;0.15;0.15;;;18.10;99.90;;;;;;5089387;28;20048;-80
2023/09/19 11:28:05;;;;;;;0.10;0.10;;;18.10;99.90;;;;;;5088858;28;20127;-79
2023/09/19 11:30:36;;;;;;;0.10;0.10;;;18.10;99.90;;;;;;5085949;28;20040;-80
2023/09/19 11:33:33;;;;;;;0.20;0.20;;;18.10;99.90;;;;;;5089737;28;20093;-79
2023/09/19 11:36:09;;;;;;;0.20;0.20;;;18.10;99.90;;;;;;5091683;28;20044;-80
2023/09/19 11:38:44;;;;;;;0.20;0.20;;;18.10;99.90;;;;;;5091393;28;20074;-79
2023/09/19 11:41:25;;;;;;;0.20;0.20;;;18.00;99.90;;;;;;5088913;28;20060;-80
2023/09/19 11:43:52;;;;;;;0.20;0.20;;;18.00;99.90;;;;;;5090317;28;20052;-80
2023/09/19 11:46:24;;;;;;;0.10;0.10;;;18.10;99.90;;;;;;5090225;28;20067;-80
2023/09/19 11:48:51;;;;;;;0.20;0.20;;;18.20;99.90;;;;;;5070606;28;20051;-80
2023/09/19 11:51:23;;;;;;;0.20;0.20;;;18.20;99.90;;;;;;5085094;28;20031;-80
2023/09/19 11:53:57;;;;;;;0.20;0.20;;;18.20;99.90;;;;;;5089290;28;20044;-80
2023/09/19 11:56:25;;;;;;;0.20;0.20;;;18.30;99.90;;;;;;5089970;28;20073;-80
2023/09/19 11:58:53;;;;;;;0.20;0.20;;;18.30;99.90;;;;;;5091151;28;20119;-80
2023/09/19 12:01:24;;;;;;;0.20;0.20;;;18.30;99.90;;;;;;5087992;28;20044;-80
2023/09/19 12:03:57;;;;;;;0.20;0.20;;;18.30;99.90;;;;;;5086836;28;20086;-80
2023/09/19 12:06:24;;;;;;;0.20;0.20;;;18.20;99.90;;;;;;5070384;28;20040;-80
2023/09/19 12:08:50;;;;;;;0.20;0.20;;;18.30;99.90;;;;;;5085625;28;20047;-80
2023/09/19 12:11:17;;;;;;;0.10;0.10;;;18.20;99.90;;;;;;5088533;28;20055;-80
2023/09/19 12:13:48;;;;;;;0.10;0.10;;;18.20;99.90;;;;;;5091156;28;20044;-79
2023/09/19 12:16:21;;;;;;;0.15;0.15;;;18.10;99.90;;;;;;5089068;28;20059;-79
2023/09/19 12:18:50;;;;;;;0.20;0.20;;;18.00;99.90;;;;;;5088356;28;20517;-82
2023/09/19 12:21:27;;;;;;;0.17;0.17;;;18.00;99.90;;;;;;5081673;28;20044;-79
2023/09/19 12:23:58;;;;;;;0.20;0.20;;;18.00;99.90;;;;;;5069493;28;20048;-79
2023/09/19 12:26:25;;;;;;;0.20;0.20;;;18.00;99.90;;;;;;5070150;28;20505;-79
2023/09/19 12:28:54;;;;;;;0.10;0.10;;;17.90;99.90;;;;;;5070390;28;20372;-79
2023/09/19 12:31:20;;;;;;;0.20;0.20;;;17.90;99.90;;;;;;5084774;28;20059;-79
2023/09/19 12:33:46;;;;;;;0.20;0.20;;;17.90;99.90;;;;;;5090020;28;20544;-78
2023/09/19 12:36:28;;;;;;;0.20;0.20;;;17.90;99.90;;;;;;5090275;28;20040;-79
2023/09/19 12:38:55;;;;;;;0.15;0.15;;;17.90;99.90;;;;;;5078299;28;20044;-79
2023/09/19 12:41:22;;;;;;;0.20;0.20;;;17.80;99.90;;;;;;5069733;28;20434;-79
2023/09/19 12:43:48;;;;;;;0.20;0.20;;;17.70;99.90;;;;;;5069101;28;20059;-79
2023/09/19 12:46:15;;;;;;;0.20;0.20;;;17.70;99.90;;;;;;5068648;28;20074;-80
2023/09/19 12:48:43;;;;;;;0.10;0.10;;;17.70;99.90;;;;;;5077667;28;20062;-79
2023/09/19 12:51:12;;;;;;;0.20;0.20;;;17.70;99.90;;;;;;5084734;28;20040;-78
2023/09/19 12:53:44;;;;;;;0.20;0.20;;;17.70;99.90;;;;;;5078285;28;20040;-79
2023/09/19 12:56:12;;;;;;;0.20;0.20;;;17.70;99.90;;;;;;5074246;28;20032;-79
2023/09/19 12:59:02;;;;;;;0.20;0.20;;;17.70;99.90;;;;;;5068886;28;20041;-79
2023/09/19 13:01:28;;;;;;;0.20;0.20;;;17.70;99.90;;;;;;5084672;28;20051;-80
2023/09/19 13:04:12;;;;;;;0.20;0.20;;;17.80;99.90;;;;;;5086365;28;20640;-80
2023/09/19 13:06:40;;;;;;;0.10;0.10;;;17.80;99.90;;;;;;5087239;28;20048;-80
2023/09/19 13:09:10;;;;;;;0.20;0.20;;;17.80;99.90;;;;;;5089261;28;20414;-81
2023/09/19 13:11:38;;;;;;;0.20;0.20;;;17.80;99.90;;;;;;5087885;28;20511;-80